Fredericktown, Ohio
Current Conditions -  °F | °C
As of 1:17 PM on Monday 26 Jan 2015 (Local Time) from K4I3 Reporting Station
Clear Clear  
Wind Chill: 19°   Ceiling: Unl
Heat Index: 27°   Visibility: 10mi
Dew Point: 18°   Wind: 7mph
Humidity: 69%   Direction: 330°NNW
Pressure: 29.78"   Gusts: NA
Location:  40.48°N, 82.54°W
Report Text: K4I3 261817Z AUTO 33006KT 10SM CLR M03/M08 A2978 RMK AO2
Loading
Personal Weather Stations






























Interactive Weather Map New forecast layout! Learn more

10-Day Weather Forecast

Advertisements
Track Severe Weather on mobile